sensor_id;sensor_type;location;lat;lon;timestamp;P1;durP1;ratioP1;P2;durP2;ratioP2
67819;SDS011;54618;52.018;5.576;2023-08-08T00:01:49;12.77;;;4.18;;
67819;SDS011;54618;52.018;5.576;2023-08-08T00:04:14;8.38;;;3.58;;
67819;SDS011;54618;52.018;5.576;2023-08-08T00:06:40;14.68;;;4.30;;
67819;SDS011;54618;52.018;5.576;2023-08-08T00:09:05;11.60;;;3.63;;
67819;SDS011;54618;52.018;5.576;2023-08-08T00:11:31;11.32;;;3.28;;
67819;SDS011;54618;52.018;5.576;2023-08-08T00:13:57;11.23;;;3.90;;
67819;SDS011;54618;52.018;5.576;2023-08-08T00:16:23;13.07;;;3.90;;
67819;SDS011;54618;52.018;5.576;2023-08-08T00:18:48;9.82;;;3.85;;
67819;SDS011;54618;52.018;5.576;2023-08-08T00:21:19;15.50;;;4.90;;
67819;SDS011;54618;52.018;5.576;2023-08-08T00:23:45;11.32;;;4.55;;
67819;SDS011;54618;52.018;5.576;2023-08-08T00:26:11;14.15;;;4.03;;
67819;SDS011;54618;52.018;5.576;2023-08-08T00:28:36;13.00;;;4.10;;
67819;SDS011;54618;52.018;5.576;2023-08-08T00:31:02;12.00;;;4.68;;
67819;SDS011;54618;52.018;5.576;2023-08-08T00:33:27;10.25;;;4.50;;
67819;SDS011;54618;52.018;5.576;2023-08-08T00:35:53;12.90;;;4.15;;
67819;SDS011;54618;52.018;5.576;2023-08-08T00:38:19;9.90;;;3.70;;
67819;SDS011;54618;52.018;5.576;2023-08-08T00:40:44;13.98;;;3.88;;
67819;SDS011;54618;52.018;5.576;2023-08-08T00:43:10;12.02;;;3.80;;
67819;SDS011;54618;52.018;5.576;2023-08-08T00:45:36;12.25;;;3.63;;
67819;SDS011;54618;52.018;5.576;2023-08-08T00:48:02;7.47;;;2.92;;
67819;SDS011;54618;52.018;5.576;2023-08-08T00:50:28;8.23;;;2.85;;
67819;SDS011;54618;52.018;5.576;2023-08-08T00:52:54;12.30;;;3.40;;
67819;SDS011;54618;52.018;5.576;2023-08-08T00:55:20;12.05;;;3.00;;
67819;SDS011;54618;52.018;5.576;2023-08-08T00:57:46;7.75;;;2.58;;
67819;SDS011;54618;52.018;5.576;2023-08-08T01:00:12;9.57;;;2.90;;
67819;SDS011;54618;52.018;5.576;2023-08-08T01:02:38;9.13;;;3.10;;
67819;SDS011;54618;52.018;5.576;2023-08-08T01:05:04;7.68;;;2.83;;
67819;SDS011;54618;52.018;5.576;2023-08-08T01:10:25;6.70;;;2.55;;
67819;SDS011;54618;52.018;5.576;2023-08-08T01:13:02;18.30;;;3.50;;
67819;SDS011;54618;52.018;5.576;2023-08-08T01:15:34;11.73;;;3.65;;
67819;SDS011;54618;52.018;5.576;2023-08-08T01:18:03;10.38;;;3.80;;
67819;SDS011;54618;52.018;5.576;2023-08-08T01:20:33;12.35;;;4.22;;
67819;SDS011;54618;52.018;5.576;2023-08-08T01:25:48;13.95;;;5.38;;
67819;SDS011;54618;52.018;5.576;2023-08-08T01:28:15;16.42;;;5.57;;
67819;SDS011;54618;52.018;5.576;2023-08-08T01:30:41;16.40;;;5.95;;
67819;SDS011;54618;52.018;5.576;2023-08-08T01:33:07;13.93;;;4.78;;
67819;SDS011;54618;52.018;5.576;2023-08-08T01:35:37;11.98;;;4.47;;
67819;SDS011;54618;52.018;5.576;2023-08-08T01:40:38;12.70;;;4.22;;
67819;SDS011;54618;52.018;5.576;2023-08-08T01:43:07;12.52;;;4.47;;
67819;SDS011;54618;52.018;5.576;2023-08-08T01:45:33;16.10;;;4.32;;
67819;SDS011;54618;52.018;5.576;2023-08-08T01:47:59;14.68;;;5.18;;
67819;SDS011;54618;52.018;5.576;2023-08-08T01:50:24;15.32;;;5.43;;
67819;SDS011;54618;52.018;5.576;2023-08-08T01:52:50;18.25;;;4.45;;
67819;SDS011;54618;52.018;5.576;2023-08-08T01:55:16;14.75;;;4.40;;
67819;SDS011;54618;52.018;5.576;2023-08-08T01:57:41;12.63;;;3.88;;
67819;SDS011;54618;52.018;5.576;2023-08-08T02:00:07;11.68;;;3.40;;
67819;SDS011;54618;52.018;5.576;2023-08-08T02:02:33;9.00;;;2.65;;
67819;SDS011;54618;52.018;5.576;2023-08-08T02:05:01;7.53;;;2.75;;
67819;SDS011;54618;52.018;5.576;2023-08-08T02:07:27;7.45;;;2.90;;
67819;SDS011;54618;52.018;5.576;2023-08-08T02:09:53;11.45;;;2.92;;
67819;SDS011;54618;52.018;5.576;2023-08-08T02:12:18;10.90;;;3.00;;
67819;SDS011;54618;52.018;5.576;2023-08-08T02:14:44;9.95;;;3.75;;
67819;SDS011;54618;52.018;5.576;2023-08-08T02:17:09;8.18;;;3.55;;
67819;SDS011;54618;52.018;5.576;2023-08-08T02:19:38;11.13;;;4.03;;
67819;SDS011;54618;52.018;5.576;2023-08-08T02:22:04;10.75;;;3.53;;
67819;SDS011;54618;52.018;5.576;2023-08-08T02:24:30;15.07;;;4.22;;
67819;SDS011;54618;52.018;5.576;2023-08-08T02:26:55;10.98;;;2.90;;
67819;SDS011;54618;52.018;5.576;2023-08-08T02:29:21;7.82;;;3.13;;
67819;SDS011;54618;52.018;5.576;2023-08-08T02:31:47;8.82;;;3.13;;
67819;SDS011;54618;52.018;5.576;2023-08-08T02:34:13;8.55;;;2.78;;
67819;SDS011;54618;52.018;5.576;2023-08-08T02:36:38;6.90;;;2.97;;
67819;SDS011;54618;52.018;5.576;2023-08-08T02:39:04;9.63;;;3.10;;
67819;SDS011;54618;52.018;5.576;2023-08-08T02:41:29;6.50;;;2.50;;
67819;SDS011;54618;52.018;5.576;2023-08-08T02:43:55;7.18;;;2.83;;
67819;SDS011;54618;52.018;5.576;2023-08-08T02:46:20;6.97;;;2.70;;
67819;SDS011;54618;52.018;5.576;2023-08-08T02:48:46;9.35;;;3.80;;
67819;SDS011;54618;52.018;5.576;2023-08-08T02:51:12;12.10;;;3.85;;
67819;SDS011;54618;52.018;5.576;2023-08-08T02:53:37;10.85;;;3.65;;
67819;SDS011;54618;52.018;5.576;2023-08-08T02:56:03;9.95;;;4.00;;
67819;SDS011;54618;52.018;5.576;2023-08-08T02:58:28;12.55;;;3.85;;
67819;SDS011;54618;52.018;5.576;2023-08-08T03:00:54;12.00;;;4.05;;
67819;SDS011;54618;52.018;5.576;2023-08-08T03:03:20;9.63;;;3.63;;
67819;SDS011;54618;52.018;5.576;2023-08-08T03:05:45;11.18;;;3.67;;
67819;SDS011;54618;52.018;5.576;2023-08-08T03:08:11;10.98;;;3.55;;
67819;SDS011;54618;52.018;5.576;2023-08-08T03:10:36;9.77;;;3.90;;
67819;SDS011;54618;52.018;5.576;2023-08-08T03:13:02;11.77;;;4.45;;
67819;SDS011;54618;52.018;5.576;2023-08-08T03:15:28;17.80;;;5.13;;
67819;SDS011;54618;52.018;5.576;2023-08-08T03:17:53;15.55;;;5.72;;
67819;SDS011;54618;52.018;5.576;2023-08-08T03:20:20;13.52;;;5.40;;
67819;SDS011;54618;52.018;5.576;2023-08-08T03:22:46;14.02;;;4.93;;
67819;SDS011;54618;52.018;5.576;2023-08-08T03:25:11;14.65;;;5.45;;
67819;SDS011;54618;52.018;5.576;2023-08-08T03:27:37;15.20;;;5.60;;
67819;SDS011;54618;52.018;5.576;2023-08-08T03:30:03;17.73;;;5.07;;
67819;SDS011;54618;52.018;5.576;2023-08-08T03:32:29;13.50;;;5.03;;
67819;SDS011;54618;52.018;5.576;2023-08-08T03:34:54;14.57;;;4.85;;
67819;SDS011;54618;52.018;5.576;2023-08-08T03:37:20;10.70;;;4.60;;
67819;SDS011;54618;52.018;5.576;2023-08-08T03:39:45;12.93;;;5.07;;
67819;SDS011;54618;52.018;5.576;2023-08-08T03:42:11;16.65;;;5.32;;
67819;SDS011;54618;52.018;5.576;2023-08-08T03:44:37;17.80;;;5.95;;
67819;SDS011;54618;52.018;5.576;2023-08-08T03:47:02;13.25;;;5.32;;
67819;SDS011;54618;52.018;5.576;2023-08-08T03:49:28;15.82;;;5.05;;
67819;SDS011;54618;52.018;5.576;2023-08-08T03:54:20;15.15;;;5.00;;
67819;SDS011;54618;52.018;5.576;2023-08-08T03:56:46;15.10;;;5.55;;
67819;SDS011;54618;52.018;5.576;2023-08-08T03:59:11;12.85;;;5.50;;
67819;SDS011;54618;52.018;5.576;2023-08-08T04:01:37;15.88;;;5.90;;
67819;SDS011;54618;52.018;5.576;2023-08-08T04:04:03;17.05;;;5.70;;
67819;SDS011;54618;52.018;5.576;2023-08-08T04:06:29;14.93;;;5.28;;
67819;SDS011;54618;52.018;5.576;2023-08-08T04:08:54;11.60;;;5.00;;
67819;SDS011;54618;52.018;5.576;2023-08-08T04:11:20;15.98;;;5.80;;
67819;SDS011;54618;52.018;5.576;2023-08-08T04:13:46;12.77;;;5.50;;
67819;SDS011;54618;52.018;5.576;2023-08-08T04:16:11;20.42;;;5.20;;
67819;SDS011;54618;52.018;5.576;2023-08-08T04:18:37;13.15;;;5.60;;
67819;SDS011;54618;52.018;5.576;2023-08-08T04:21:02;11.90;;;5.30;;
67819;SDS011;54618;52.018;5.576;2023-08-08T04:23:29;16.63;;;5.43;;
67819;SDS011;54618;52.018;5.576;2023-08-08T04:25:54;13.65;;;5.47;;
67819;SDS011;54618;52.018;5.576;2023-08-08T04:28:20;13.13;;;5.07;;
67819;SDS011;54618;52.018;5.576;2023-08-08T04:30:46;17.35;;;5.93;;
67819;SDS011;54618;52.018;5.576;2023-08-08T04:33:11;19.23;;;5.35;;
67819;SDS011;54618;52.018;5.576;2023-08-08T04:35:40;17.00;;;5.20;;
67819;SDS011;54618;52.018;5.576;2023-08-08T04:38:08;11.95;;;4.75;;
67819;SDS011;54618;52.018;5.576;2023-08-08T04:40:34;18.98;;;5.65;;
67819;SDS011;54618;52.018;5.576;2023-08-08T04:43:08;13.05;;;5.07;;
67819;SDS011;54618;52.018;5.576;2023-08-08T04:45:33;13.52;;;5.22;;
67819;SDS011;54618;52.018;5.576;2023-08-08T04:47:59;17.80;;;5.63;;
67819;SDS011;54618;52.018;5.576;2023-08-08T04:50:24;23.30;;;5.82;;
67819;SDS011;54618;52.018;5.576;2023-08-08T04:52:50;18.83;;;5.68;;
67819;SDS011;54618;52.018;5.576;2023-08-08T04:55:15;17.15;;;5.00;;
67819;SDS011;54618;52.018;5.576;2023-08-08T04:57:41;18.52;;;5.03;;
67819;SDS011;54618;52.018;5.576;2023-08-08T05:00:07;14.23;;;5.45;;
67819;SDS011;54618;52.018;5.576;2023-08-08T05:02:33;16.10;;;5.75;;
67819;SDS011;54618;52.018;5.576;2023-08-08T05:04:59;13.40;;;5.93;;
67819;SDS011;54618;52.018;5.576;2023-08-08T05:07:25;18.80;;;5.90;;
67819;SDS011;54618;52.018;5.576;2023-08-08T05:09:51;15.82;;;6.07;;
67819;SDS011;54618;52.018;5.576;2023-08-08T05:12:19;15.57;;;6.03;;
67819;SDS011;54618;52.018;5.576;2023-08-08T05:14:47;14.98;;;5.80;;
67819;SDS011;54618;52.018;5.576;2023-08-08T05:17:13;22.38;;;5.35;;
67819;SDS011;54618;52.018;5.576;2023-08-08T05:19:41;15.43;;;5.38;;
67819;SDS011;54618;52.018;5.576;2023-08-08T05:22:07;15.98;;;4.85;;
67819;SDS011;54618;52.018;5.576;2023-08-08T05:24:33;11.52;;;4.90;;
67819;SDS011;54618;52.018;5.576;2023-08-08T05:27:05;13.35;;;4.47;;
67819;SDS011;54618;52.018;5.576;2023-08-08T05:29:32;14.75;;;5.10;;
67819;SDS011;54618;52.018;5.576;2023-08-08T05:31:57;25.35;;;4.82;;
67819;SDS011;54618;52.018;5.576;2023-08-08T05:34:23;12.40;;;4.30;;
67819;SDS011;54618;52.018;5.576;2023-08-08T05:36:49;11.93;;;4.15;;
67819;SDS011;54618;52.018;5.576;2023-08-08T05:39:15;12.70;;;3.85;;
67819;SDS011;54618;52.018;5.576;2023-08-08T05:41:40;13.15;;;3.85;;
67819;SDS011;54618;52.018;5.576;2023-08-08T05:44:09;12.57;;;4.10;;
67819;SDS011;54618;52.018;5.576;2023-08-08T05:46:35;11.77;;;4.05;;
67819;SDS011;54618;52.018;5.576;2023-08-08T05:49:06;11.57;;;3.80;;
67819;SDS011;54618;52.018;5.576;2023-08-08T05:51:32;9.88;;;4.13;;
67819;SDS011;54618;52.018;5.576;2023-08-08T05:54:08;11.50;;;4.03;;
67819;SDS011;54618;52.018;5.576;2023-08-08T05:56:35;10.18;;;3.10;;
67819;SDS011;54618;52.018;5.576;2023-08-08T05:59:03;9.30;;;3.30;;
67819;SDS011;54618;52.018;5.576;2023-08-08T06:01:30;11.23;;;2.97;;
67819;SDS011;54618;52.018;5.576;2023-08-08T06:03:55;7.20;;;2.38;;
67819;SDS011;54618;52.018;5.576;2023-08-08T06:06:23;5.95;;;2.17;;
67819;SDS011;54618;52.018;5.576;2023-08-08T06:08:49;7.70;;;2.30;;
67819;SDS011;54618;52.018;5.576;2023-08-08T06:11:14;8.05;;;2.08;;
67819;SDS011;54618;52.018;5.576;2023-08-08T06:13:40;6.00;;;2.22;;
67819;SDS011;54618;52.018;5.576;2023-08-08T06:16:11;6.57;;;2.00;;
67819;SDS011;54618;52.018;5.576;2023-08-08T06:18:37;5.82;;;1.92;;
67819;SDS011;54618;52.018;5.576;2023-08-08T06:21:02;4.28;;;1.77;;
67819;SDS011;54618;52.018;5.576;2023-08-08T06:23:28;7.60;;;1.88;;
67819;SDS011;54618;52.018;5.576;2023-08-08T06:25:53;7.97;;;2.75;;
67819;SDS011;54618;52.018;5.576;2023-08-08T06:28:19;6.10;;;2.05;;
67819;SDS011;54618;52.018;5.576;2023-08-08T06:30:45;6.10;;;1.67;;
67819;SDS011;54618;52.018;5.576;2023-08-08T06:33:10;7.50;;;1.50;;
67819;SDS011;54618;52.018;5.576;2023-08-08T06:35:36;4.70;;;1.40;;
67819;SDS011;54618;52.018;5.576;2023-08-08T06:38:02;5.70;;;1.30;;
67819;SDS011;54618;52.018;5.576;2023-08-08T06:40:28;4.38;;;1.33;;
67819;SDS011;54618;52.018;5.576;2023-08-08T06:42:53;8.73;;;1.35;;
67819;SDS011;54618;52.018;5.576;2023-08-08T06:45:20;3.97;;;1.10;;
67819;SDS011;54618;52.018;5.576;2023-08-08T06:47:46;2.60;;;1.00;;
67819;SDS011;54618;52.018;5.576;2023-08-08T06:50:11;3.78;;;0.90;;
67819;SDS011;54618;52.018;5.576;2023-08-08T06:52:37;4.85;;;1.55;;
67819;SDS011;54618;52.018;5.576;2023-08-08T06:55:03;3.42;;;0.98;;
67819;SDS011;54618;52.018;5.576;2023-08-08T06:57:31;3.97;;;0.95;;
67819;SDS011;54618;52.018;5.576;2023-08-08T06:59:57;3.75;;;1.00;;
67819;SDS011;54618;52.018;5.576;2023-08-08T07:02:23;2.17;;;0.82;;
67819;SDS011;54618;52.018;5.576;2023-08-08T07:04:48;3.97;;;0.85;;
67819;SDS011;54618;52.018;5.576;2023-08-08T07:07:16;3.65;;;0.70;;
67819;SDS011;54618;52.018;5.576;2023-08-08T07:09:42;3.60;;;0.75;;
67819;SDS011;54618;52.018;5.576;2023-08-08T07:12:08;5.53;;;1.42;;
67819;SDS011;54618;52.018;5.576;2023-08-08T07:14:34;5.30;;;1.10;;
67819;SDS011;54618;52.018;5.576;2023-08-08T07:16:59;1.65;;;0.70;;
67819;SDS011;54618;52.018;5.576;2023-08-08T07:19:27;3.13;;;1.05;;
67819;SDS011;54618;52.018;5.576;2023-08-08T07:21:53;3.25;;;1.00;;
67819;SDS011;54618;52.018;5.576;2023-08-08T07:24:18;3.95;;;0.85;;
67819;SDS011;54618;52.018;5.576;2023-08-08T07:26:45;4.13;;;0.93;;
67819;SDS011;54618;52.018;5.576;2023-08-08T07:29:11;3.33;;;0.70;;
67819;SDS011;54618;52.018;5.576;2023-08-08T07:31:36;4.32;;;0.90;;
67819;SDS011;54618;52.018;5.576;2023-08-08T07:34:02;6.10;;;1.15;;
67819;SDS011;54618;52.018;5.576;2023-08-08T07:36:28;2.60;;;0.60;;
67819;SDS011;54618;52.018;5.576;2023-08-08T07:38:56;1.98;;;0.65;;
67819;SDS011;54618;52.018;5.576;2023-08-08T07:41:28;1.52;;;0.63;;
67819;SDS011;54618;52.018;5.576;2023-08-08T07:43:55;3.42;;;0.80;;
67819;SDS011;54618;52.018;5.576;2023-08-08T07:46:20;4.72;;;0.85;;
67819;SDS011;54618;52.018;5.576;2023-08-08T07:48:46;2.63;;;0.75;;
67819;SDS011;54618;52.018;5.576;2023-08-08T07:51:19;3.88;;;1.02;;
67819;SDS011;54618;52.018;5.576;2023-08-08T07:53:44;1.90;;;0.80;;
67819;SDS011;54618;52.018;5.576;2023-08-08T07:56:11;5.72;;;0.90;;
67819;SDS011;54618;52.018;5.576;2023-08-08T07:58:38;1.77;;;0.68;;
67819;SDS011;54618;52.018;5.576;2023-08-08T08:01:04;2.50;;;0.90;;
67819;SDS011;54618;52.018;5.576;2023-08-08T08:03:31;2.85;;;0.60;;
67819;SDS011;54618;52.018;5.576;2023-08-08T08:05:56;2.35;;;0.70;;
67819;SDS011;54618;52.018;5.576;2023-08-08T08:08:22;2.60;;;0.52;;
67819;SDS011;54618;52.018;5.576;2023-08-08T08:10:49;4.60;;;0.77;;
67819;SDS011;54618;52.018;5.576;2023-08-08T08:13:16;2.10;;;0.50;;
67819;SDS011;54618;52.018;5.576;2023-08-08T08:15:41;2.42;;;0.70;;
67819;SDS011;54618;52.018;5.576;2023-08-08T08:18:07;2.05;;;0.80;;
67819;SDS011;54618;52.018;5.576;2023-08-08T08:20:34;2.67;;;0.70;;
67819;SDS011;54618;52.018;5.576;2023-08-08T08:23:07;0.88;;;0.50;;
67819;SDS011;54618;52.018;5.576;2023-08-08T08:25:32;1.70;;;0.93;;
67819;SDS011;54618;52.018;5.576;2023-08-08T08:27:58;3.78;;;0.60;;
67819;SDS011;54618;52.018;5.576;2023-08-08T08:30:23;1.42;;;0.40;;
67819;SDS011;54618;52.018;5.576;2023-08-08T08:32:52;2.30;;;0.50;;
67819;SDS011;54618;52.018;5.576;2023-08-08T08:35:18;3.03;;;0.52;;
67819;SDS011;54618;52.018;5.576;2023-08-08T08:37:44;2.50;;;0.70;;
67819;SDS011;54618;52.018;5.576;2023-08-08T08:40:10;3.28;;;0.70;;
67819;SDS011;54618;52.018;5.576;2023-08-08T08:42:37;3.10;;;0.63;;
67819;SDS011;54618;52.018;5.576;2023-08-08T08:45:04;5.85;;;0.90;;
67819;SDS011;54618;52.018;5.576;2023-08-08T08:47:31;1.30;;;0.50;;
67819;SDS011;54618;52.018;5.576;2023-08-08T08:50:15;2.53;;;0.60;;
67819;SDS011;54618;52.018;5.576;2023-08-08T08:52:42;0.77;;;0.30;;
67819;SDS011;54618;52.018;5.576;2023-08-08T08:55:09;2.55;;;0.57;;
67819;SDS011;54618;52.018;5.576;2023-08-08T08:57:39;1.73;;;0.63;;
67819;SDS011;54618;52.018;5.576;2023-08-08T09:00:10;1.33;;;0.40;;
67819;SDS011;54618;52.018;5.576;2023-08-08T09:02:37;1.40;;;0.60;;
67819;SDS011;54618;52.018;5.576;2023-08-08T09:05:03;2.67;;;0.50;;
67819;SDS011;54618;52.018;5.576;2023-08-08T09:07:30;5.53;;;0.60;;
67819;SDS011;54618;52.018;5.576;2023-08-08T09:10:03;1.33;;;0.45;;
67819;SDS011;54618;52.018;5.576;2023-08-08T09:12:32;1.70;;;0.68;;
67819;SDS011;54618;52.018;5.576;2023-08-08T09:15:07;1.52;;;0.50;;
67819;SDS011;54618;52.018;5.576;2023-08-08T09:17:34;2.67;;;0.63;;
67819;SDS011;54618;52.018;5.576;2023-08-08T09:20:09;2.58;;;0.60;;
67819;SDS011;54618;52.018;5.576;2023-08-08T09:22:37;2.35;;;0.50;;
67819;SDS011;54618;52.018;5.576;2023-08-08T09:25:03;1.42;;;0.43;;
67819;SDS011;54618;52.018;5.576;2023-08-08T09:27:33;1.25;;;0.50;;
67819;SDS011;54618;52.018;5.576;2023-08-08T09:30:00;1.85;;;0.50;;
67819;SDS011;54618;52.018;5.576;2023-08-08T09:32:32;1.65;;;0.60;;
67819;SDS011;54618;52.018;5.576;2023-08-08T09:34:58;1.23;;;0.50;;
67819;SDS011;54618;52.018;5.576;2023-08-08T09:37:24;1.73;;;0.40;;
67819;SDS011;54618;52.018;5.576;2023-08-08T09:39:57;2.60;;;0.40;;
67819;SDS011;54618;52.018;5.576;2023-08-08T09:42:25;0.77;;;0.40;;
67819;SDS011;54618;52.018;5.576;2023-08-08T09:44:52;2.13;;;0.63;;
67819;SDS011;54618;52.018;5.576;2023-08-08T09:47:18;1.60;;;0.50;;
67819;SDS011;54618;52.018;5.576;2023-08-08T09:49:46;1.55;;;0.47;;
67819;SDS011;54618;52.018;5.576;2023-08-08T09:52:12;1.05;;;0.50;;
67819;SDS011;54618;52.018;5.576;2023-08-08T09:54:39;1.25;;;0.47;;
67819;SDS011;54618;52.018;5.576;2023-08-08T09:57:07;1.35;;;0.50;;
67819;SDS011;54618;52.018;5.576;2023-08-08T09:59:38;1.98;;;0.82;;
67819;SDS011;54618;52.018;5.576;2023-08-08T10:02:05;1.80;;;0.50;;
67819;SDS011;54618;52.018;5.576;2023-08-08T10:04:38;2.72;;;0.57;;
67819;SDS011;54618;52.018;5.576;2023-08-08T10:07:04;0.50;;;0.40;;
67819;SDS011;54618;52.018;5.576;2023-08-08T10:09:30;2.58;;;0.45;;
67819;SDS011;54618;52.018;5.576;2023-08-08T10:11:56;3.30;;;0.50;;
67819;SDS011;54618;52.018;5.576;2023-08-08T10:14:27;1.55;;;0.40;;
67819;SDS011;54618;52.018;5.576;2023-08-08T10:16:57;2.13;;;0.40;;
67819;SDS011;54618;52.018;5.576;2023-08-08T10:19:23;2.60;;;0.50;;
67819;SDS011;54618;52.018;5.576;2023-08-08T10:21:54;2.10;;;0.52;;
67819;SDS011;54618;52.018;5.576;2023-08-08T10:24:32;2.30;;;0.50;;
67819;SDS011;54618;52.018;5.576;2023-08-08T10:26:59;2.20;;;0.60;;
67819;SDS011;54618;52.018;5.576;2023-08-08T10:29:28;3.63;;;0.60;;
67819;SDS011;54618;52.018;5.576;2023-08-08T10:31:59;1.92;;;0.60;;
67819;SDS011;54618;52.018;5.576;2023-08-08T10:34:42;1.25;;;0.55;;
67819;SDS011;54618;52.018;5.576;2023-08-08T10:37:09;2.20;;;0.60;;
67819;SDS011;54618;52.018;5.576;2023-08-08T10:39:48;1.08;;;0.43;;
67819;SDS011;54618;52.018;5.576;2023-08-08T10:42:26;2.58;;;0.60;;
67819;SDS011;54618;52.018;5.576;2023-08-08T10:44:57;2.53;;;0.90;;
67819;SDS011;54618;52.018;5.576;2023-08-08T10:47:34;2.40;;;0.75;;
67819;SDS011;54618;52.018;5.576;2023-08-08T10:57:57;2.05;;;0.70;;
67819;SDS011;54618;52.018;5.576;2023-08-08T11:00:24;2.30;;;0.60;;
67819;SDS011;54618;52.018;5.576;2023-08-08T11:02:51;2.38;;;0.60;;
67819;SDS011;54618;52.018;5.576;2023-08-08T11:05:18;1.83;;;0.70;;
67819;SDS011;54618;52.018;5.576;2023-08-08T11:07:44;2.15;;;0.52;;
67819;SDS011;54618;52.018;5.576;2023-08-08T11:10:10;1.35;;;0.60;;
67819;SDS011;54618;52.018;5.576;2023-08-08T11:12:39;1.85;;;0.60;;
67819;SDS011;54618;52.018;5.576;2023-08-08T11:15:08;2.13;;;0.70;;
67819;SDS011;54618;52.018;5.576;2023-08-08T11:17:34;1.80;;;0.68;;
67819;SDS011;54618;52.018;5.576;2023-08-08T11:20:01;1.75;;;0.63;;
67819;SDS011;54618;52.018;5.576;2023-08-08T11:22:30;2.97;;;0.63;;
67819;SDS011;54618;52.018;5.576;2023-08-08T11:24:56;1.92;;;0.50;;
67819;SDS011;54618;52.018;5.576;2023-08-08T11:27:28;1.42;;;0.50;;
67819;SDS011;54618;52.018;5.576;2023-08-08T11:29:55;2.92;;;0.60;;
67819;SDS011;54618;52.018;5.576;2023-08-08T11:32:22;1.63;;;0.50;;
67819;SDS011;54618;52.018;5.576;2023-08-08T11:34:50;0.85;;;0.60;;
67819;SDS011;54618;52.018;5.576;2023-08-08T11:37:16;4.00;;;0.70;;
67819;SDS011;54618;52.018;5.576;2023-08-08T11:39:42;2.88;;;0.47;;
67819;SDS011;54618;52.018;5.576;2023-08-08T11:42:08;1.63;;;0.50;;
67819;SDS011;54618;52.018;5.576;2023-08-08T11:44:34;2.00;;;0.60;;
67819;SDS011;54618;52.018;5.576;2023-08-08T11:47:01;2.13;;;0.50;;
67819;SDS011;54618;52.018;5.576;2023-08-08T11:49:27;2.38;;;0.77;;
67819;SDS011;54618;52.018;5.576;2023-08-08T11:51:56;5.13;;;0.80;;
67819;SDS011;54618;52.018;5.576;2023-08-08T11:54:22;5.30;;;0.70;;
67819;SDS011;54618;52.018;5.576;2023-08-08T11:56:47;1.48;;;0.57;;
67819;SDS011;54618;52.018;5.576;2023-08-08T11:59:13;0.93;;;0.50;;
67819;SDS011;54618;52.018;5.576;2023-08-08T12:01:38;2.38;;;0.70;;
67819;SDS011;54618;52.018;5.576;2023-08-08T12:04:09;2.90;;;0.63;;
67819;SDS011;54618;52.018;5.576;2023-08-08T12:06:36;3.15;;;0.70;;
67819;SDS011;54618;52.018;5.576;2023-08-08T12:09:04;1.73;;;0.70;;
67819;SDS011;54618;52.018;5.576;2023-08-08T12:11:33;3.15;;;0.70;;
67819;SDS011;54618;52.018;5.576;2023-08-08T12:14:00;2.28;;;0.60;;
67819;SDS011;54618;52.018;5.576;2023-08-08T12:16:27;2.75;;;0.60;;
67819;SDS011;54618;52.018;5.576;2023-08-08T12:18:54;3.40;;;0.65;;
67819;SDS011;54618;52.018;5.576;2023-08-08T12:21:20;2.10;;;1.00;;
67819;SDS011;54618;52.018;5.576;2023-08-08T12:23:49;2.60;;;0.60;;
67819;SDS011;54618;52.018;5.576;2023-08-08T12:26:14;1.05;;;0.50;;
67819;SDS011;54618;52.018;5.576;2023-08-08T12:28:40;1.95;;;0.60;;
67819;SDS011;54618;52.018;5.576;2023-08-08T12:31:05;4.88;;;0.70;;
67819;SDS011;54618;52.018;5.576;2023-08-08T12:33:35;3.13;;;0.73;;
67819;SDS011;54618;52.018;5.576;2023-08-08T12:36:00;1.23;;;0.68;;
67819;SDS011;54618;52.018;5.576;2023-08-08T12:38:26;1.52;;;0.70;;
67819;SDS011;54618;52.018;5.576;2023-08-08T12:40:51;1.52;;;0.65;;
67819;SDS011;54618;52.018;5.576;2023-08-08T12:43:17;1.48;;;0.60;;
67819;SDS011;54618;52.018;5.576;2023-08-08T12:45:45;2.55;;;0.70;;
67819;SDS011;54618;52.018;5.576;2023-08-08T12:48:12;2.22;;;0.70;;
67819;SDS011;54618;52.018;5.576;2023-08-08T12:50:38;4.00;;;0.80;;
67819;SDS011;54618;52.018;5.576;2023-08-08T12:53:04;2.28;;;0.60;;
67819;SDS011;54618;52.018;5.576;2023-08-08T12:55:30;1.67;;;0.77;;
67819;SDS011;54618;52.018;5.576;2023-08-08T12:57:56;4.65;;;0.93;;
67819;SDS011;54618;52.018;5.576;2023-08-08T13:00:21;1.95;;;0.73;;
67819;SDS011;54618;52.018;5.576;2023-08-08T13:02:48;4.32;;;0.70;;
67819;SDS011;54618;52.018;5.576;2023-08-08T13:05:14;3.33;;;0.73;;
67819;SDS011;54618;52.018;5.576;2023-08-08T13:07:39;3.58;;;0.70;;
67819;SDS011;54618;52.018;5.576;2023-08-08T13:10:05;3.40;;;0.63;;
67819;SDS011;54618;52.018;5.576;2023-08-08T13:12:31;12.38;;;1.52;;
67819;SDS011;54618;52.018;5.576;2023-08-08T13:14:56;3.53;;;0.63;;
67819;SDS011;54618;52.018;5.576;2023-08-08T13:17:22;3.40;;;0.90;;
67819;SDS011;54618;52.018;5.576;2023-08-08T13:19:47;2.40;;;0.70;;
67819;SDS011;54618;52.018;5.576;2023-08-08T13:22:13;1.85;;;0.65;;
67819;SDS011;54618;52.018;5.576;2023-08-08T13:24:38;3.15;;;0.63;;
67819;SDS011;54618;52.018;5.576;2023-08-08T13:27:04;2.45;;;0.63;;
67819;SDS011;54618;52.018;5.576;2023-08-08T13:29:30;1.92;;;0.70;;
67819;SDS011;54618;52.018;5.576;2023-08-08T13:31:55;2.63;;;0.70;;
67819;SDS011;54618;52.018;5.576;2023-08-08T13:34:21;2.22;;;0.70;;
67819;SDS011;54618;52.018;5.576;2023-08-08T13:36:46;3.20;;;0.65;;
67819;SDS011;54618;52.018;5.576;2023-08-08T13:39:12;2.85;;;0.80;;
67819;SDS011;54618;52.018;5.576;2023-08-08T13:41:38;3.75;;;0.70;;
67819;SDS011;54618;52.018;5.576;2023-08-08T13:44:04;2.88;;;0.60;;
67819;SDS011;54618;52.018;5.576;2023-08-08T13:46:29;2.78;;;0.70;;
67819;SDS011;54618;52.018;5.576;2023-08-08T13:48:55;1.70;;;0.77;;
67819;SDS011;54618;52.018;5.576;2023-08-08T13:51:21;3.00;;;0.90;;
67819;SDS011;54618;52.018;5.576;2023-08-08T13:53:46;2.55;;;0.60;;
67819;SDS011;54618;52.018;5.576;2023-08-08T13:56:14;1.60;;;0.70;;
67819;SDS011;54618;52.018;5.576;2023-08-08T13:58:43;3.83;;;0.70;;
67819;SDS011;54618;52.018;5.576;2023-08-08T14:01:08;3.72;;;0.82;;
67819;SDS011;54618;52.018;5.576;2023-08-08T14:03:34;2.90;;;0.70;;
67819;SDS011;54618;52.018;5.576;2023-08-08T14:05:59;1.60;;;0.60;;
67819;SDS011;54618;52.018;5.576;2023-08-08T14:08:25;3.75;;;0.60;;
67819;SDS011;54618;52.018;5.576;2023-08-08T14:10:51;2.92;;;0.63;;
67819;SDS011;54618;52.018;5.576;2023-08-08T14:13:16;3.03;;;0.93;;
67819;SDS011;54618;52.018;5.576;2023-08-08T14:15:44;2.33;;;0.85;;
67819;SDS011;54618;52.018;5.576;2023-08-08T14:18:10;1.85;;;0.57;;
67819;SDS011;54618;52.018;5.576;2023-08-08T14:20:35;2.35;;;0.75;;
67819;SDS011;54618;52.018;5.576;2023-08-08T14:23:04;1.80;;;0.63;;
67819;SDS011;54618;52.018;5.576;2023-08-08T14:25:29;2.58;;;0.70;;
67819;SDS011;54618;52.018;5.576;2023-08-08T14:27:55;0.98;;;0.57;;
67819;SDS011;54618;52.018;5.576;2023-08-08T14:30:25;3.80;;;0.63;;
67819;SDS011;54618;52.018;5.576;2023-08-08T14:32:52;1.25;;;0.50;;
67819;SDS011;54618;52.018;5.576;2023-08-08T14:35:18;6.20;;;0.70;;
67819;SDS011;54618;52.018;5.576;2023-08-08T14:37:43;2.88;;;0.60;;
67819;SDS011;54618;52.018;5.576;2023-08-08T14:40:09;4.40;;;0.60;;
67819;SDS011;54618;52.018;5.576;2023-08-08T14:42:35;1.42;;;0.68;;
67819;SDS011;54618;52.018;5.576;2023-08-08T14:45:01;2.72;;;0.90;;
67819;SDS011;54618;52.018;5.576;2023-08-08T14:47:26;2.13;;;0.70;;
67819;SDS011;54618;52.018;5.576;2023-08-08T14:49:52;1.75;;;0.82;;
67819;SDS011;54618;52.018;5.576;2023-08-08T14:52:17;1.83;;;0.68;;
67819;SDS011;54618;52.018;5.576;2023-08-08T14:54:43;2.78;;;0.70;;
67819;SDS011;54618;52.018;5.576;2023-08-08T14:57:08;2.20;;;0.73;;
67819;SDS011;54618;52.018;5.576;2023-08-08T14:59:34;3.47;;;0.75;;